Time;durP1;ratioP1;P1;durP2;ratioP2;P2;SDS_P1;SDS_P2;PMS_P1;PMS_P2;Temp;Humidity;BMP_temperature;BMP_pressure;BME280_temperature;BME280_humidity;BME280_pressure;Samples;Min_cycle;Max_cycle;Signal;HPM_P1;HPM_P2
2022/09/06 00:02:05;;;;;;;1.60;1.02;;;22.10;74.40;;;22.69;72.23;100931.25;5189754;28;20069;-84
2022/09/06 00:04:39;;;;;;;1.23;1.13;;;22.10;74.90;;;22.67;72.47;100937.47;5188112;28;20042;-83
2022/09/06 00:07:11;;;;;;;1.05;0.95;;;22.10;75.10;;;22.67;72.31;100937.47;5189709;28;20069;-86
2022/09/06 00:09:43;;;;;;;1.45;1.10;;;22.10;75.10;;;22.65;72.58;100944.56;5189427;28;20045;-85
2022/09/06 00:12:16;;;;;;;1.50;1.08;;;22.00;75.20;;;22.64;71.11;100937.50;5191148;28;20136;-84
2022/09/06 00:14:48;;;;;;;2.40;1.35;;;22.00;74.40;;;22.62;70.45;100941.94;5191706;28;20459;-85
2022/09/06 00:17:20;;;;;;;1.40;1.00;;;22.00;73.80;;;22.63;71.27;100946.38;5189369;28;20050;-85
2022/09/06 00:19:54;;;;;;;1.08;0.95;;;22.10;74.40;;;22.64;72.10;100946.34;5190457;28;20056;-85
2022/09/06 00:22:26;;;;;;;1.15;1.05;;;22.00;74.90;;;22.66;72.88;100956.97;5188065;28;20496;-84
2022/09/06 00:24:58;;;;;;;1.92;1.35;;;22.10;75.50;;;22.66;70.96;100962.28;5189414;28;20054;-86
2022/09/06 00:27:30;;;;;;;2.00;1.10;;;22.10;74.40;;;22.67;70.23;100974.66;5205188;28;20128;-85
2022/09/06 00:30:04;;;;;;;0.98;0.95;;;22.10;73.70;;;22.71;69.87;100987.03;5190125;28;20042;-85
2022/09/06 00:32:36;;;;;;;1.40;1.05;;;22.20;73.50;;;22.74;70.21;101025.03;5188917;28;20153;-84
2022/09/06 00:35:10;;;;;;;2.05;1.10;;;22.20;73.70;;;22.82;70.05;101066.59;5190433;28;20079;-85
2022/09/06 00:37:42;;;;;;;1.30;1.20;;;22.20;73.80;;;22.86;69.98;101060.34;5206194;28;20079;-85
2022/09/06 00:40:14;;;;;;;1.52;1.17;;;22.30;73.60;;;22.89;69.86;101093.16;5188998;28;20057;-84
2022/09/06 00:42:46;;;;;;;2.28;1.20;;;22.30;73.50;;;22.83;70.07;101089.66;5206421;28;20113;-84
2022/09/06 00:45:19;;;;;;;2.08;1.30;;;22.30;73.60;;;22.73;70.98;101086.19;5188056;28;20074;-83
2022/09/06 00:47:52;;;;;;;1.67;1.15;;;22.20;74.00;;;22.68;71.47;101082.69;5188572;28;20048;-84
2022/09/06 00:50:26;;;;;;;1.85;1.30;;;22.20;74.40;;;22.63;71.90;101076.56;5188758;28;20494;-85
2022/09/06 00:52:59;;;;;;;1.83;1.33;;;22.10;74.80;;;22.60;72.35;101071.28;5190828;28;20046;-85
2022/09/06 00:55:31;;;;;;;2.03;1.40;;;22.00;75.30;;;22.61;74.60;101060.63;5191484;28;20551;-85
2022/09/06 00:58:03;;;;;;;2.33;1.33;;;22.10;76.90;;;22.63;79.95;101063.28;5190428;28;20471;-85
2022/09/06 01:00:36;;;;;;;2.53;1.75;;;22.10;80.50;;;22.61;84.36;101055.31;5188735;28;20653;-83
2022/09/06 01:03:11;;;;;;;2.05;1.50;;;22.10;83.60;;;22.58;88.28;101058.00;5188531;28;20042;-85
2022/09/06 01:05:56;;;;;;;2.15;1.67;;;22.10;86.70;;;22.60;91.35;101047.34;5191492;28;20054;-86
2022/09/06 01:08:45;;;;;;;2.13;1.60;;;22.10;89.40;;;22.61;93.99;101047.34;5193471;28;20120;-85
2022/09/06 01:11:41;;;;;;;3.25;2.10;;;22.10;91.20;;;22.61;96.72;101044.69;5192957;28;20049;-85
2022/09/06 01:14:29;;;;;;;2.28;2.00;;;22.10;92.40;;;22.59;98.23;101040.28;5194138;28;20037;-85
2022/09/06 01:17:10;;;;;;;3.10;1.80;;;22.10;93.40;;;22.57;99.21;101037.66;5192746;28;20054;-85
2022/09/06 01:20:23;;;;;;;3.05;1.98;;;22.10;94.30;;;22.56;100.00;101035.00;5192572;28;20077;-84
2022/09/06 01:23:44;;;;;;;2.55;2.05;;;22.00;95.00;;;22.56;100.00;101025.28;5190575;28;20072;-85
2022/09/06 01:26:53;;;;;;;3.28;1.80;;;22.00;95.70;;;22.59;100.00;101038.50;5192679;28;20125;-85
2022/09/06 01:29:33;;;;;;;2.75;1.92;;;22.00;96.40;;;22.56;100.00;101038.56;5193629;28;20049;-85
2022/09/06 01:32:17;;;;;;;3.53;1.83;;;22.00;96.80;;;22.53;100.00;101035.03;5192032;28;20042;-85
2022/09/06 01:34:56;;;;;;;3.67;1.60;;;22.00;97.20;;;22.53;100.00;101037.69;5175335;28;20141;-85
2022/09/06 01:37:28;;;;;;;2.53;1.90;;;22.00;97.60;;;22.53;100.00;101027.06;5192937;28;20454;-85
2022/09/06 01:40:01;;;;;;;2.75;2.00;;;22.00;97.90;;;22.53;100.00;101029.72;5192479;28;20046;-84
2022/09/06 01:42:35;;;;;;;3.22;1.70;;;22.00;98.10;;;22.51;100.00;101023.56;5192189;28;20060;-84
2022/09/06 01:45:12;;;;;;;2.40;1.60;;;21.90;98.30;;;22.46;100.00;101011.19;5191060;28;20077;-84
2022/09/06 01:47:58;;;;;;;2.65;1.75;;;21.90;98.40;;;22.46;100.00;101010.31;5193503;28;20046;-86
2022/09/06 01:50:50;;;;;;;3.78;2.10;;;21.90;98.40;;;22.47;100.00;101006.75;5192214;28;20046;-84
2022/09/06 01:53:49;;;;;;;2.30;1.52;;;21.90;98.60;;;22.48;100.00;101008.50;5192260;28;20046;-85
2022/09/06 01:56:32;;;;;;;3.15;1.65;;;21.90;98.70;;;22.49;100.00;101004.97;5191431;28;20045;-85
2022/09/06 01:59:31;;;;;;;2.75;1.70;;;21.90;98.80;;;22.48;100.00;101009.41;5191210;28;20049;-84
2022/09/06 02:02:09;;;;;;;2.03;1.48;;;21.90;98.90;;;22.50;100.00;101000.56;5191813;28;20046;-85
2022/09/06 02:04:45;;;;;;;2.50;1.38;;;21.90;99.10;;;22.48;100.00;100998.78;5191446;28;20393;-85
2022/09/06 02:07:23;;;;;;;2.10;1.25;;;21.90;99.20;;;22.46;100.00;100997.91;5191251;28;20054;-84
2022/09/06 02:10:00;;;;;;;3.20;1.70;;;21.90;99.30;;;22.44;100.00;100997.06;5190588;28;20045;-86
2022/09/06 02:12:35;;;;;;;3.15;1.90;;;21.90;99.40;;;22.42;100.00;100996.19;5192534;28;20073;-84
2022/09/06 02:15:13;;;;;;;3.05;2.17;;;21.80;99.40;;;22.41;100.00;101002.38;5191962;28;20082;-84
2022/09/06 02:17:53;;;;;;;3.10;1.60;;;21.90;99.60;;;22.40;100.00;101008.59;5190595;28;20046;-84
2022/09/06 02:20:30;;;;;;;3.75;1.70;;;21.90;99.70;;;22.42;100.00;101013.88;5190833;28;20046;-84
2022/09/06 02:23:07;;;;;;;2.58;1.50;;;21.90;99.70;;;22.42;100.00;101005.94;5207197;28;20511;-84
2022/09/06 02:25:42;;;;;;;2.95;1.88;;;21.80;99.60;;;22.42;100.00;100985.56;5192624;28;20169;-84
2022/09/06 02:28:15;;;;;;;1.88;1.63;;;21.80;99.60;;;22.43;100.00;100982.03;5207370;28;20088;-84
2022/09/06 02:30:51;;;;;;;3.00;1.73;;;21.80;99.60;;;22.40;100.00;100982.03;5190535;28;20057;-85
2022/09/06 02:33:28;;;;;;;2.63;1.70;;;21.80;99.50;;;22.40;100.00;100992.66;5191201;28;20045;-85
2022/09/06 02:36:06;;;;;;;3.10;1.80;;;21.90;99.60;;;22.37;100.00;101019.28;5190853;28;20538;-84
2022/09/06 02:38:40;;;;;;;3.20;1.98;;;21.80;99.70;;;22.37;100.00;101045.84;5191121;28;20050;-84
2022/09/06 02:41:12;;;;;;;;;;;21.80;99.80;;;22.35;100.00;101044.06;5191501;28;20049;-83
2022/09/06 02:43:45;;;;;;;2.60;1.98;;;21.80;99.70;;;22.35;100.00;101044.06;5191910;28;19921;-84
2022/09/06 02:46:17;;;;;;;2.30;1.73;;;21.80;99.60;;;22.36;100.00;101044.03;5190491;28;20046;-84
2022/09/06 02:48:50;;;;;;;2.30;1.70;;;21.80;99.60;;;22.37;100.00;101035.22;5190695;28;20053;-84
2022/09/06 02:51:22;;;;;;;3.08;2.10;;;21.80;99.50;;;22.33;100.00;101022.84;5191477;28;20140;-85
2022/09/06 02:53:55;;;;;;;4.28;2.08;;;21.80;99.80;;;22.31;100.00;101029.97;5191264;28;20120;-83
2022/09/06 02:56:27;;;;;;;3.78;2.15;;;21.80;99.70;;;22.30;100.00;101022.88;5190584;28;20061;-84
2022/09/06 02:59:00;;;;;;;2.35;1.83;;;21.80;99.90;;;22.29;100.00;101031.72;5192070;28;20058;-85
2022/09/06 03:01:32;;;;;;;2.95;1.85;;;21.80;99.90;;;22.25;100.00;101018.50;5190864;28;20104;-84
2022/09/06 03:04:07;;;;;;;3.75;1.80;;;21.80;99.90;;;22.25;100.00;101019.38;5191527;28;20046;-85
2022/09/06 03:06:39;;;;;;;2.85;1.77;;;21.70;99.90;;;22.23;100.00;101013.19;5190674;28;20050;-82
2022/09/06 03:09:11;;;;;;;2.70;2.00;;;21.70;99.90;;;22.20;100.00;100999.97;5190528;28;20053;-84
2022/09/06 03:11:43;;;;;;;3.08;2.05;;;21.70;99.90;;;22.16;100.00;101003.53;5174688;28;20113;-83
2022/09/06 03:14:15;;;;;;;2.80;2.00;;;21.60;99.90;;;22.10;100.00;100993.84;5190643;28;20057;-84
2022/09/06 03:16:48;;;;;;;3.15;1.83;;;21.60;99.90;;;22.05;100.00;100997.44;5189704;28;20141;-85
2022/09/06 03:19:21;;;;;;;3.33;1.73;;;21.60;99.90;;;22.00;100.00;100991.28;5191472;28;20128;-84
2022/09/06 03:21:53;;;;;;;3.38;1.80;;;21.50;99.90;;;21.95;100.00;100984.22;5189509;28;20080;-83
2022/09/06 03:24:26;;;;;;;2.30;1.80;;;21.50;99.90;;;21.91;100.00;100987.81;5189517;28;20073;-84
2022/09/06 03:26:58;;;;;;;3.13;2.00;;;21.40;99.90;;;21.89;100.00;100994.88;5188851;28;20050;-85
2022/09/06 03:29:30;;;;;;;2.10;1.73;;;21.40;99.90;;;21.85;100.00;100985.22;5205533;28;20053;-85
2022/09/06 03:32:02;;;;;;;3.28;2.03;;;21.30;99.90;;;21.80;100.00;100979.06;5191106;28;20409;-85
2022/09/06 03:34:36;;;;;;;4.18;2.30;;;21.30;99.90;;;21.73;100.00;100966.75;5189972;28;20046;-84
2022/09/06 03:37:08;;;;;;;2.70;2.05;;;21.30;99.90;;;21.68;100.00;100973.84;5189542;28;20471;-86
2022/09/06 03:39:40;;;;;;;3.05;2.10;;;21.20;99.90;;;21.63;100.00;100976.53;5192662;28;20049;-84
2022/09/06 03:42:12;;;;;;;3.67;2.22;;;21.20;99.90;;;21.54;100.00;100968.66;5191022;28;20252;-84
2022/09/06 03:44:45;;;;;;;3.38;2.28;;;21.20;99.90;;;21.48;100.00;100959.88;5174966;28;20531;-84
2022/09/06 03:47:17;;;;;;;2.67;2.00;;;21.00;99.90;;;21.44;100.00;100976.69;5189972;28;20084;-84
2022/09/06 03:49:51;;;;;;;2.45;1.80;;;21.00;99.90;;;21.38;100.00;100975.81;5190580;28;20054;-85
2022/09/06 03:52:23;;;;;;;1.98;1.65;;;20.90;99.90;;;21.37;100.00;100979.38;5190975;28;20049;-85
2022/09/06 03:54:55;;;;;;;2.33;1.65;;;20.90;99.90;;;21.34;100.00;100974.09;5193059;28;20038;-85
2022/09/06 03:57:27;;;;;;;2.38;1.60;;;20.90;99.90;;;21.29;100.00;100965.28;5199392;28;20061;-84
2022/09/06 03:59:59;;;;;;;2.22;1.75;;;20.80;99.90;;;21.25;100.00;100967.94;5189453;28;20104;-84
2022/09/06 04:02:32;;;;;;;2.88;1.80;;;20.80;99.90;;;21.18;100.00;100964.44;5188824;28;20113;-84
2022/09/06 04:05:06;;;;;;;2.00;1.70;;;20.70;99.90;;;21.17;100.00;100964.44;5188774;28;20046;-85
2022/09/06 04:07:39;;;;;;;2.35;1.80;;;20.70;99.90;;;21.14;100.00;100962.72;5188776;28;20574;-84
2022/09/06 04:10:11;;;;;;;2.30;1.77;;;20.70;99.90;;;21.11;100.00;100963.59;5205288;28;20053;-85
2022/09/06 04:12:44;;;;;;;2.70;1.85;;;20.60;99.90;;;21.08;100.00;100960.09;5188380;28;20112;-85
2022/09/06 04:15:17;;;;;;;4.07;1.75;;;20.60;99.90;;;21.02;100.00;100945.09;5189356;28;20042;-84
2022/09/06 04:17:49;;;;;;;3.35;1.70;;;20.60;99.90;;;21.01;100.00;100942.47;5188088;28;20053;-84
2022/09/06 04:20:22;;;;;;;4.72;1.80;;;20.50;99.90;;;20.93;100.00;100946.91;5188369;28;20121;-84
2022/09/06 04:22:55;;;;;;;2.67;1.80;;;20.50;99.90;;;20.93;100.00;100944.25;5187764;28;20076;-84
2022/09/06 04:25:27;;;;;;;2.40;1.80;;;20.50;99.90;;;20.90;100.00;100953.13;5191087;28;20073;-85
2022/09/06 04:27:59;;;;;;;2.78;1.70;;;20.50;99.90;;;20.86;100.00;100944.31;5191544;28;20132;-85
2022/09/06 04:30:31;;;;;;;2.60;1.77;;;20.40;99.90;;;20.81;100.00;100940.81;5189906;28;20052;-84
2022/09/06 04:33:03;;;;;;;2.30;1.70;;;20.40;99.90;;;20.77;100.00;100947.00;5190334;28;20046;-85
2022/09/06 04:35:37;;;;;;;2.75;1.83;;;20.30;99.90;;;20.70;100.00;100952.31;5192142;28;20493;-84
2022/09/06 04:38:09;;;;;;;1.70;1.60;;;20.30;99.90;;;20.68;100.00;100949.69;5190378;28;20512;-84
2022/09/06 04:40:41;;;;;;;3.17;1.92;;;20.20;99.90;;;20.62;100.00;100952.38;5190248;28;20053;-84
2022/09/06 04:43:14;;;;;;;2.75;1.83;;;20.20;99.90;;;20.63;100.00;100956.78;5190635;28;20053;-84
2022/09/06 04:45:46;;;;;;;3.78;2.20;;;20.20;99.90;;;20.61;100.00;100953.25;5190740;28;20052;-85
2022/09/06 04:48:18;;;;;;;3.30;1.90;;;20.20;99.90;;;20.56;100.00;100955.03;5190986;28;20559;-84
2022/09/06 04:50:52;;;;;;;2.85;1.92;;;20.10;99.90;;;20.54;100.00;100960.34;5189956;28;20520;-84
2022/09/06 04:53:24;;;;;;;3.40;1.83;;;20.10;99.90;;;20.54;100.00;100963.00;5189758;28;20337;-84
2022/09/06 04:55:57;;;;;;;3.25;2.08;;;20.10;99.90;;;20.53;100.00;100965.63;5190429;28;20046;-85
2022/09/06 04:58:29;;;;;;;1.98;1.77;;;20.10;99.90;;;20.49;100.00;100959.47;5192783;28;20045;-84
2022/09/06 05:01:02;;;;;;;2.58;1.65;;;20.00;99.90;;;20.47;100.00;100961.22;5190176;28;20117;-85
2022/09/06 05:03:34;;;;;;;2.53;1.80;;;20.00;99.90;;;20.45;100.00;100960.34;5189304;28;20157;-85
2022/09/06 05:06:10;;;;;;;2.63;1.60;;;20.00;99.90;;;20.44;100.00;100957.69;5189350;28;20042;-85
2022/09/06 05:08:43;;;;;;;2.33;1.73;;;20.00;99.90;;;20.41;100.00;100960.31;5190405;28;20042;-83
2022/09/06 05:11:15;;;;;;;2.65;1.70;;;20.00;99.90;;;20.35;100.00;100965.66;5198781;28;20089;-83
2022/09/06 05:13:49;;;;;;;3.60;1.88;;;19.90;99.90;;;20.29;100.00;100962.13;5195317;28;20384;-85
2022/09/06 05:16:21;;;;;;;2.53;1.92;;;19.80;99.90;;;20.23;100.00;100967.44;5188132;28;20077;-86
2022/09/06 05:18:53;;;;;;;2.85;1.70;;;19.80;99.90;;;20.18;100.00;100969.22;5188805;28;20451;-85
2022/09/06 05:21:26;;;;;;;2.50;1.50;;;19.70;99.90;;;20.12;100.00;100968.34;5189542;28;20050;-85
2022/09/06 05:23:59;;;;;;;1.65;1.48;;;19.70;99.90;;;20.07;100.00;100970.97;5189979;28;20118;-84
2022/09/06 05:26:31;;;;;;;2.65;2.08;;;19.60;99.90;;;20.04;100.00;100971.00;5189965;28;20042;-83
2022/09/06 05:29:03;;;;;;;2.72;1.90;;;19.60;99.90;;;20.03;100.00;100969.25;5188676;28;20050;-85
2022/09/06 05:31:36;;;;;;;2.58;1.90;;;19.60;99.90;;;20.01;100.00;100981.56;5188205;28;20046;-85
2022/09/06 05:34:09;;;;;;;2.13;1.73;;;19.60;99.90;;;20.01;100.00;100976.28;5192132;28;20049;-85
2022/09/06 05:36:44;;;;;;;3.22;2.00;;;19.50;99.90;;;20.00;100.00;100979.81;5189643;28;20046;-84
2022/09/06 05:39:18;;;;;;;2.03;1.60;;;19.50;99.90;;;20.00;100.00;100974.53;5189151;28;20045;-84
2022/09/06 05:41:50;;;;;;;2.60;1.77;;;19.50;99.90;;;19.99;100.00;100973.66;5190408;28;20105;-84
2022/09/06 05:44:22;;;;;;;2.97;1.85;;;19.50;99.90;;;19.99;100.00;100972.75;5187914;28;20061;-84
2022/09/06 05:46:54;;;;;;;2.10;1.73;;;19.50;99.90;;;20.00;100.00;100975.41;5187744;28;20056;-84
2022/09/06 05:49:26;;;;;;;3.05;1.92;;;19.50;99.90;;;20.04;100.00;100976.28;5188456;28;20048;-85
2022/09/06 05:52:00;;;;;;;2.45;1.65;;;19.50;99.90;;;20.04;100.00;100976.28;5191009;28;20052;-84
2022/09/06 05:54:32;;;;;;;3.00;1.80;;;19.60;99.90;;;20.08;100.00;100982.44;5191692;28;20049;-83
2022/09/06 05:57:04;;;;;;;2.50;1.70;;;19.60;99.90;;;20.10;100.00;100984.22;5193591;28;20056;-82
2022/09/06 05:59:36;;;;;;;2.30;1.70;;;19.60;99.90;;;20.15;100.00;100979.81;5193775;28;20519;-83
2022/09/06 06:02:09;;;;;;;2.40;2.05;;;19.70;99.90;;;20.21;100.00;100986.84;5192486;28;20113;-82
2022/09/06 06:04:41;;;;;;;3.08;1.90;;;19.70;99.90;;;20.27;100.00;100985.06;5208423;28;20530;-81
2022/09/06 06:07:14;;;;;;;2.58;1.92;;;19.70;99.90;;;20.32;100.00;100993.88;5188185;28;20053;-81
2022/09/06 06:09:46;;;;;;;2.72;1.73;;;19.80;99.90;;;20.38;100.00;100978.88;5188754;28;20042;-81
2022/09/06 06:12:18;;;;;;;3.63;1.80;;;19.80;99.90;;;20.49;100.00;100985.06;5188444;28;20068;-81
2022/09/06 06:14:51;;;;;;;2.08;1.77;;;19.90;99.90;;;20.63;100.00;100972.66;5189018;28;20050;-80
2022/09/06 06:17:23;;;;;;;2.17;1.60;;;20.00;99.90;;;20.81;100.00;100982.31;5189121;28;20153;-83
2022/09/06 06:19:55;;;;;;;2.78;2.17;;;20.20;99.90;;;21.07;100.00;100980.41;5199891;28;20034;-80
2022/09/06 06:22:29;;;;;;;3.58;1.95;;;20.40;99.90;;;21.47;100.00;100979.31;5350176;22;20016;-82
2022/09/06 06:25:01;;;;;;;2.55;1.90;;;20.80;99.90;;;22.01;100.00;100982.41;5220065;28;20519;-82
2022/09/06 06:27:35;;;;;;;3.15;1.92;;;21.20;99.90;;;22.58;100.00;100986.28;5227487;28;20469;-82
2022/09/06 06:30:08;;;;;;;;;;;21.70;99.90;;;23.14;95.90;100987.34;5229250;28;20143;-82
2022/09/06 06:32:40;;;;;;;2.35;1.75;;;22.30;99.50;;;23.67;91.65;100988.41;5229000;28;19924;-83
2022/09/06 06:35:13;;;;;;;2.58;1.80;;;22.70;98.10;;;24.20;88.75;100988.38;5228872;28;20049;-82
2022/09/06 06:37:46;;;;;;;2.63;1.70;;;23.20;96.90;;;24.68;86.50;100983.91;5228400;28;20456;-82
2022/09/06 06:40:18;;;;;;;2.80;1.83;;;23.70;96.20;;;25.05;84.22;100988.50;5210648;28;20045;-83
2022/09/06 06:42:50;;;;;;;2.40;1.60;;;24.10;94.90;;;25.34;82.80;100987.84;5210288;28;20049;-82
2022/09/06 06:45:22;;;;;;;2.50;1.75;;;24.40;94.10;;;25.60;81.18;100990.75;5209856;28;20045;-82
2022/09/06 06:47:54;;;;;;;3.17;1.70;;;24.70;93.20;;;25.88;80.34;100990.13;5209215;28;20037;-82
2022/09/06 06:50:27;;;;;;;2.92;1.65;;;24.90;92.60;;;26.12;78.52;101000.16;5209277;28;20053;-81
2022/09/06 06:53:01;;;;;;;3.72;1.70;;;25.20;91.70;;;26.28;76.57;100997.09;5209365;28;20045;-83
2022/09/06 06:55:34;;;;;;;3.60;1.85;;;25.40;90.60;;;26.36;74.42;101001.31;5209315;28;20048;-82
2022/09/06 06:58:06;;;;;;;4.43;1.80;;;25.50;88.70;;;26.53;73.77;100995.53;5208423;28;20045;-82
2022/09/06 07:00:39;;;;;;;2.20;1.65;;;25.60;87.50;;;26.62;73.03;100992.63;5208512;28;20052;-83
2022/09/06 07:03:12;;;;;;;2.20;1.73;;;25.80;86.20;;;26.76;72.97;100997.56;5208228;28;20053;-83
2022/09/06 07:05:45;;;;;;;3.30;1.73;;;25.90;85.60;;;27.00;72.08;100986.16;5207857;28;20046;-82
2022/09/06 07:08:19;;;;;;;4.43;1.88;;;26.10;84.60;;;27.26;70.77;100988.06;5210089;28;20060;-82
2022/09/06 07:10:51;;;;;;;2.60;1.77;;;26.30;83.00;;;27.38;69.61;100988.56;5208870;28;20109;-77
2022/09/06 07:13:23;;;;;;;2.20;1.83;;;26.50;81.60;;;27.43;69.21;100997.34;5208827;28;20044;-77
2022/09/06 07:16:08;;;;;;;2.33;1.63;;;26.50;80.80;;;27.53;69.38;100999.69;5222814;28;20064;-83
2022/09/06 07:18:41;;;;;;;2.92;1.55;;;26.60;80.40;;;27.60;68.38;101005.72;5211896;28;20049;-82
2022/09/06 07:21:15;;;;;;;3.75;1.75;;;26.60;79.20;;;27.50;67.82;100996.22;5209968;28;20081;-83
2022/09/06 07:23:49;;;;;;;2.90;1.65;;;26.60;78.00;;;27.44;68.63;100996.41;5210021;28;20041;-82
2022/09/06 07:26:23;;;;;;;3.13;1.73;;;26.60;78.60;;;27.40;68.28;100994.78;5209548;28;20041;-83
2022/09/06 07:28:59;;;;;;;2.97;1.50;;;26.60;78.00;;;27.43;68.23;100978.59;5209584;28;20136;-83
2022/09/06 07:31:31;;;;;;;2.63;1.60;;;26.60;77.70;;;27.53;67.87;100980.06;5210466;28;20049;-83
2022/09/06 07:34:03;;;;;;;2.28;1.40;;;26.70;77.50;;;27.58;67.66;100978.09;5209730;28;20053;-83
2022/09/06 07:36:36;;;;;;;2.45;1.63;;;26.80;77.00;;;27.66;67.30;100984.09;5209425;28;20073;-83
2022/09/06 07:39:09;;;;;;;1.73;1.42;;;26.80;76.40;;;27.74;67.13;100983.88;5209780;28;20053;-84
2022/09/06 07:41:43;;;;;;;2.50;1.52;;;26.80;76.10;;;27.85;67.57;100973.69;5209303;28;20056;-84
2022/09/06 07:44:15;;;;;;;2.65;1.50;;;27.00;76.50;;;28.09;67.46;100979.97;5209259;28;20045;-83
2022/09/06 07:46:47;;;;;;;4.32;1.52;;;27.20;76.40;;;28.39;66.34;100984.28;5210568;28;20048;-81
2022/09/06 07:49:19;;;;;;;2.25;1.35;;;27.40;75.40;;;28.56;65.35;100980.09;5210891;28;20046;-83
2022/09/06 07:51:51;;;;;;;2.72;1.33;;;27.60;74.50;;;28.68;65.28;100976.97;5209119;28;20064;-84
2022/09/06 07:54:25;;;;;;;3.25;1.27;;;27.70;74.00;;;28.79;64.31;100977.47;5210348;28;20057;-84
2022/09/06 07:56:57;;;;;;;2.13;1.58;;;27.80;73.20;;;28.93;64.31;100974.28;5209403;28;20037;-83
2022/09/06 07:59:29;;;;;;;1.60;1.30;;;27.90;73.10;;;29.09;63.65;100977.25;5209131;28;20059;-82
2022/09/06 08:02:01;;;;;;;2.78;1.20;;;28.00;72.30;;;29.22;63.65;100975.84;5209717;28;20048;-83
2022/09/06 08:04:33;;;;;;;2.85;1.20;;;28.10;72.00;;;29.39;62.89;100981.38;5210549;28;20059;-84
2022/09/06 08:07:05;;;;;;;4.30;1.40;;;28.20;71.50;;;29.60;62.44;100985.03;5212476;28;20049;-83
2022/09/06 08:09:39;;;;;;;2.53;1.38;;;28.40;70.80;;;29.95;61.65;100978.19;5212914;28;20053;-84
2022/09/06 08:12:11;;;;;;;2.08;1.60;;;28.60;70.50;;;30.30;60.57;100978.50;5212028;28;20057;-84
2022/09/06 08:14:43;;;;;;;2.03;1.10;;;28.80;69.30;;;30.71;59.17;100984.75;5212283;28;20464;-84
2022/09/06 08:17:15;;;;;;;3.40;1.23;;;29.00;68.60;;;30.99;58.56;100973.56;5211008;28;20045;-84
2022/09/06 08:19:48;;;;;;;3.35;1.10;;;29.30;67.70;;;31.30;58.49;100977.53;5210377;28;20045;-84
2022/09/06 08:22:20;;;;;;;2.65;1.20;;;29.40;67.80;;;31.87;57.58;100979.16;5211704;28;20049;-85
2022/09/06 08:24:53;;;;;;;2.25;1.00;;;29.70;67.40;;;32.67;55.78;100989.38;5211886;28;20503;-84
2022/09/06 08:27:26;;;;;;;1.40;1.00;;;30.10;66.10;;;33.22;54.19;100972.81;5210914;28;20480;-84
2022/09/06 08:29:58;;;;;;;2.97;1.30;;;30.40;65.00;;;33.85;53.13;100976.44;5211567;28;20208;-84
2022/09/06 08:32:33;;;;;;;2.72;1.05;;;30.80;64.10;;;34.55;51.54;100977.56;5211794;28;20088;-87
2022/09/06 08:35:06;;;;;;;2.33;1.10;;;31.30;62.60;;;35.04;51.13;100974.50;5212141;28;20037;-84
2022/09/06 08:37:38;;;;;;;1.95;1.00;;;31.90;61.50;;;35.65;49.77;100975.03;5212794;28;20143;-85
2022/09/06 08:40:22;;;;;;;2.83;1.08;;;32.50;59.80;;;36.11;48.66;100967.34;5213018;28;20080;-84
2022/09/06 08:42:54;;;;;;;3.28;1.05;;;33.00;58.30;;;36.67;48.17;100966.09;5213294;28;20045;-84
2022/09/06 08:45:26;;;;;;;2.05;0.90;;;33.60;57.80;;;37.37;47.15;100970.13;5212733;28;20037;-84
2022/09/06 08:47:59;;;;;;;0.95;0.70;;;34.10;56.70;;;38.00;46.19;100986.09;5211949;28;20048;-84
2022/09/06 08:50:31;;;;;;;1.35;0.60;;;34.60;55.40;;;38.54;44.22;100980.06;5212111;28;20087;-83
2022/09/06 08:53:07;;;;;;;1.38;0.75;;;35.10;53.40;;;38.81;43.74;100973.44;5212545;28;20053;-84
2022/09/06 08:55:46;;;;;;;1.35;0.75;;;35.40;52.60;;;39.05;43.75;100968.66;5213022;28;20045;-84
2022/09/06 08:58:39;;;;;;;1.65;0.70;;;35.70;52.40;;;38.92;42.74;100967.09;5211186;28;20116;-85
2022/09/06 09:01:17;;;;;;;2.03;0.73;;;35.80;51.10;;;38.39;43.46;100964.06;5212068;28;20047;-84
2022/09/06 09:03:50;;;;;;;0.80;0.70;;;35.70;50.80;;;37.98;43.21;100963.59;5211973;28;20050;-83
2022/09/06 09:06:24;;;;;;;1.50;0.63;;;35.50;50.40;;;37.60;43.58;100952.03;5210597;28;20049;-84
2022/09/06 09:09:04;;;;;;;1.23;0.63;;;35.30;50.60;;;37.36;44.70;100957.47;5212942;28;20049;-84
2022/09/06 09:11:42;;;;;;;1.60;0.65;;;35.20;50.90;;;36.98;45.06;100950.31;5212347;28;20110;-84
2022/09/06 09:14:18;;;;;;;1.50;0.70;;;35.10;50.90;;;36.49;45.64;100947.53;5211317;28;20072;-85
2022/09/06 09:16:51;;;;;;;0.75;0.70;;;34.90;51.20;;;35.89;46.36;100951.66;5210384;28;20060;-85
2022/09/06 09:19:23;;;;;;;1.48;0.52;;;34.50;51.40;;;35.42;47.12;100946.75;5211302;28;20053;-83
2022/09/06 09:21:56;;;;;;;1.67;0.60;;;34.20;51.90;;;35.09;47.70;100939.88;5209969;28;20060;-84
2022/09/06 09:24:30;;;;;;;0.68;0.60;;;33.90;52.40;;;34.82;48.40;100939.75;5210884;28;20547;-82
2022/09/06 09:27:09;;;;;;;1.35;0.60;;;33.60;53.00;;;34.50;48.25;100934.59;5210696;28;20076;-82
2022/09/06 09:30:00;;;;;;;0.55;0.55;;;33.40;52.70;;;34.29;48.94;100939.44;5213499;28;20041;-85
2022/09/06 09:32:35;;;;;;;1.00;0.80;;;33.20;53.30;;;34.19;49.07;100932.88;5214745;28;20042;-83
2022/09/06 09:35:23;;;;;;;0.65;0.65;;;33.00;53.40;;;34.09;49.23;100930.81;5213228;28;20059;-83
2022/09/06 09:38:03;;;;;;;0.65;0.60;;;32.90;53.50;;;33.99;49.46;100927.81;5212604;28;20049;-84
2022/09/06 09:40:40;;;;;;;1.75;0.80;;;32.90;53.80;;;33.90;49.83;100925.63;5212792;28;20058;-83
2022/09/06 09:43:20;;;;;;;1.20;0.88;;;32.70;54.10;;;33.83;50.44;100913.44;5213690;28;20053;-83
2022/09/06 09:46:17;;;;;;;2.63;0.88;;;32.60;54.70;;;33.84;49.63;100912.47;5212930;28;20041;-84
2022/09/06 09:49:04;;;;;;;2.00;0.80;;;32.60;54.10;;;33.82;49.73;100900.91;5212953;28;20103;-83
2022/09/06 09:51:38;;;;;;;0.63;0.60;;;32.60;54.20;;;33.84;50.74;100893.56;5214522;28;20518;-85
2022/09/06 09:54:13;;;;;;;2.50;0.80;;;32.60;54.70;;;33.99;50.98;100903.50;5214169;28;20512;-84
2022/09/06 09:56:50;;;;;;;2.00;0.70;;;32.70;55.10;;;34.15;51.10;100908.81;5213591;28;20049;-83
2022/09/06 09:59:28;;;;;;;0.73;0.68;;;32.80;55.20;;;34.21;49.43;100900.31;5215775;28;20045;-83
2022/09/06 10:02:02;;;;;;;1.55;0.90;;;32.90;54.00;;;34.13;49.34;100899.94;5215720;28;20041;-83
2022/09/06 10:04:40;;;;;;;1.48;0.90;;;32.90;53.90;;;33.87;49.08;100887.97;5213864;28;20049;-84
2022/09/06 10:07:16;;;;;;;2.17;0.80;;;32.70;53.30;;;33.62;49.81;100897.56;5213791;28;20566;-84
2022/09/06 10:09:57;;;;;;;0.68;0.68;;;32.60;54.20;;;33.28;50.26;100889.69;5215733;28;20052;-84
2022/09/06 10:12:32;;;;;;;1.38;0.68;;;32.30;54.00;;;33.15;50.93;100885.00;5214846;28;20037;-83
2022/09/06 10:15:09;;;;;;;1.40;0.70;;;32.10;54.50;;;33.19;51.22;100882.97;5213988;28;20045;-83
2022/09/06 10:17:51;;;;;;;0.70;0.70;;;32.10;55.20;;;33.36;51.09;100882.88;5213893;28;20060;-84
2022/09/06 10:20:32;;;;;;;0.70;0.70;;;32.10;55.40;;;33.57;51.47;100886.16;5214179;28;20051;-84
2022/09/06 10:23:12;;;;;;;0.90;0.80;;;32.30;55.50;;;33.64;50.48;100889.34;5215141;28;20076;-83
2022/09/06 10:25:46;;;;;;;1.58;0.80;;;32.30;54.60;;;33.70;50.16;100875.47;5212615;28;20044;-83
2022/09/06 10:28:35;;;;;;;1.48;0.77;;;32.40;54.40;;;33.71;49.56;100878.13;5213402;28;20053;-83
2022/09/06 10:31:50;;;;;;;1.95;0.90;;;32.50;54.10;;;33.47;49.61;100883.16;5213597;28;20049;-84
2022/09/06 10:35:16;;;;;;;1.20;0.70;;;32.30;53.70;;;33.46;49.85;100884.13;5211987;28;20419;-83
2022/09/06 10:38:08;;;;;;;1.13;0.80;;;32.30;54.00;;;33.45;49.59;100887.78;5208948;28;20788;-85
2022/09/06 10:40:50;;;;;;;1.52;0.90;;;32.30;53.80;;;33.42;50.14;100881.66;5213643;28;20102;-83
2022/09/06 10:43:27;;;;;;;1.38;0.85;;;32.30;54.00;;;33.47;49.80;100885.84;5214274;28;20057;-84
2022/09/06 10:46:03;;;;;;;0.90;0.90;;;32.30;54.00;;;33.44;49.36;100879.75;5212973;28;20515;-84